Time;durP1;ratioP1;P1;durP2;ratioP2;P2;SDS_P1;SDS_P2;PMS_P1;PMS_P2;Temp;Humidity;BMP_temperature;BMP_pressure;BME280_temperature;BME280_humidity;BME280_pressure;Samples;Min_cycle;Max_cycle;Signal;HPM_P1;HPM_P2
2022/07/27 00:00:31;;;;;;;3.30;2.72;;;;;;;16.74;73.93;99034.36;1701205;84;21586;-83
2022/07/27 00:02:58;;;;;;;3.92;2.75;;;;;;;16.69;74.08;99039.52;1700124;84;21151;-84
2022/07/27 00:05:25;;;;;;;3.00;2.70;;;;;;;16.68;74.24;99039.14;1700992;84;21116;-83
2022/07/27 00:07:52;;;;;;;3.08;2.83;;;;;;;16.70;75.01;99038.55;1701130;84;21028;-83
2022/07/27 00:10:18;;;;;;;3.67;3.02;;;;;;;16.68;75.40;99035.64;1701348;84;21142;-83
2022/07/27 00:12:47;;;;;;;3.05;2.62;;;;;;;16.64;75.46;99035.00;1705600;82;21061;-84
2022/07/27 00:15:14;;;;;;;3.72;2.52;;;;;;;16.63;75.45;99043.91;1744385;82;20982;-84
2022/07/27 00:17:41;;;;;;;4.05;2.47;;;;;;;16.59;75.19;99039.73;1744934;82;21145;-83
2022/07/27 00:20:10;;;;;;;2.85;2.60;;;;;;;16.59;75.10;99039.73;1743802;82;21478;-76
2022/07/27 00:22:37;;;;;;;3.15;2.72;;;;;;;16.54;75.09;99032.56;1738005;82;21557;-83
2022/07/27 00:25:04;;;;;;;3.90;2.95;;;;;;;16.51;75.17;99036.78;1737370;82;21023;-84
2022/07/27 00:27:31;;;;;;;3.47;2.83;;;;;;;16.48;75.75;99032.99;1737689;82;21090;-82
2022/07/27 00:29:57;;;;;;;3.65;2.98;;;;;;;16.47;76.04;99036.59;1737543;82;21791;-84
2022/07/27 00:32:23;;;;;;;3.55;2.72;;;;;;;16.49;76.53;99038.66;1737651;82;21533;-83
2022/07/27 00:34:50;;;;;;;4.35;2.52;;;;;;;16.49;76.55;99033.34;1737270;82;21109;-82
2022/07/27 00:37:17;;;;;;;2.90;2.70;;;;;;;16.49;76.38;99036.00;1737605;82;20983;-81
2022/07/27 00:39:44;;;;;;;6.72;2.67;;;;;;;16.48;76.12;99039.63;1737723;82;21038;-81
2022/07/27 00:42:12;;;;;;;2.85;2.65;;;;;;;16.45;75.86;99038.02;1737633;82;21043;-83
2022/07/27 00:44:40;;;;;;;3.70;2.58;;;;;;;16.43;75.83;99040.42;1737341;82;21026;-83
2022/07/27 00:47:07;;;;;;;6.05;3.10;;;;;;;16.40;76.01;99034.81;1737395;82;21995;-81
2022/07/27 00:49:33;;;;;;;3.17;2.87;;;;;;;16.42;76.70;99040.03;1737339;82;21019;-82
2022/07/27 00:52:00;;;;;;;3.27;2.35;;;;;;;16.38;76.71;99041.20;1737531;82;20976;-82
2022/07/27 00:54:26;;;;;;;2.95;2.65;;;;;;;16.35;76.33;99045.73;1737364;82;21816;-80
2022/07/27 00:56:53;;;;;;;8.10;2.40;;;;;;;16.37;75.98;99039.48;1737587;82;21640;-82
2022/07/27 00:59:19;;;;;;;2.83;2.50;;;;;;;16.35;75.70;99034.27;1737486;82;21149;-83
2022/07/27 01:01:46;;;;;;;2.98;2.67;;;;;;;16.31;75.61;99036.28;1737340;82;21027;-84
2022/07/27 01:04:12;;;;;;;3.08;2.85;;;;;;;16.28;75.99;99044.45;1737421;82;21022;-80
2022/07/27 01:06:39;;;;;;;5.35;2.62;;;;;;;16.26;76.44;99045.03;1737456;82;21192;-80
2022/07/27 01:11:51;;;;;;;;;;;;;;;16.22;76.96;99040.85;1740075;82;21455;-81
2022/07/27 01:14:17;;;;;;;6.00;3.33;;;;;;;16.19;77.29;99047.72;1719888;82;20164;-81
2022/07/27 01:16:46;;;;;;;3.25;2.95;;;;;;;16.17;77.27;99042.96;1708996;83;21059;-83
2022/07/27 01:19:13;;;;;;;4.47;2.75;;;;;;;16.17;77.53;99045.61;1705258;83;21143;-79
2022/07/27 01:21:41;;;;;;;6.87;3.35;;;;;;;16.18;77.50;99043.34;1701943;84;22069;-84
2022/07/27 01:24:08;;;;;;;3.20;2.62;;;;;;;16.20;77.48;99037.45;1701351;82;21026;-83
2022/07/27 01:26:35;;;;;;;4.00;2.85;;;;;;;16.22;77.33;99038.20;1704303;82;21025;-83
2022/07/27 01:29:01;;;;;;;3.22;2.92;;;;;;;16.23;77.07;99041.24;1702044;84;21091;-81
2022/07/27 01:31:29;;;;;;;3.27;2.60;;;;;;;16.21;76.85;99043.16;1702179;84;21112;-84
2022/07/27 01:33:56;;;;;;;2.87;2.62;;;;;;;16.20;76.71;99046.75;1702147;84;21079;-83
2022/07/27 01:36:23;;;;;;;3.52;2.65;;;;;;;16.19;76.45;99038.43;1701947;83;21143;-84
2022/07/27 01:38:50;;;;;;;4.05;2.58;;;;;;;16.17;76.09;99035.00;1702154;84;21024;-84
2022/07/27 01:41:17;;;;;;;2.50;2.30;;;;;;;16.14;76.06;99039.20;1701811;84;21063;-81
2022/07/27 01:43:45;;;;;;;2.62;2.42;;;;;;;16.12;76.51;99043.73;1702178;84;21637;-84
2022/07/27 01:46:11;;;;;;;2.62;2.42;;;;;;;16.10;76.99;99037.69;1701856;84;21197;-84
2022/07/27 01:48:39;;;;;;;3.33;2.15;;;;;;;16.08;77.31;99039.59;1701972;84;21723;-83
2022/07/27 01:51:07;;;;;;;2.72;2.52;;;;;;;16.07;77.18;99040.08;1701937;84;21500;-83
2022/07/27 01:53:33;;;;;;;2.42;2.10;;;;;;;16.11;76.91;99040.73;1701976;84;21507;-83
2022/07/27 01:56:00;;;;;;;3.85;2.25;;;;;;;16.13;76.68;99034.35;1702235;84;21101;-84
2022/07/27 01:58:26;;;;;;;2.67;2.47;;;;;;;16.14;76.42;99039.20;1702182;84;21071;-83
2022/07/27 02:00:53;;;;;;;2.42;2.22;;;;;;;16.14;76.24;99033.90;1701957;84;21146;-84
2022/07/27 02:03:19;;;;;;;2.72;2.08;;;;;;;16.14;76.25;99031.25;1702222;84;21095;-83
2022/07/27 02:05:46;;;;;;;8.60;2.10;;;;;;;16.14;76.00;99032.57;1701934;84;21059;-83
2022/07/27 02:08:13;;;;;;;3.35;2.12;;;;;;;16.12;75.83;99028.69;1702083;84;21103;-84
2022/07/27 02:12:34;;;;;;;3.80;2.22;;;;;;;16.13;75.64;99030.86;1701687;84;21017;-84
2022/07/27 02:13:08;;;;;;;2.37;2.17;;;;;;;16.12;75.45;99031.34;1698577;84;21617;-83
2022/07/27 02:15:35;;;;;;;3.12;2.27;;;;;;;16.11;75.37;99028.78;1726110;82;21609;-84
2022/07/27 02:18:01;;;;;;;2.70;2.17;;;;;;;16.09;75.49;99028.04;1709158;83;21179;-82
2022/07/27 02:20:35;;;;;;;2.10;2.00;;;;;;;16.08;75.83;99032.95;1708131;83;21228;-84
2022/07/27 02:23:02;;;;;;;2.37;2.17;;;;;;;16.08;76.02;99032.95;1707514;83;21052;-82
2022/07/27 02:25:29;;;;;;;2.77;1.80;;;;;;;16.07;75.90;99037.88;1701899;84;21139;-84
2022/07/27 02:27:55;;;;;;;3.77;2.02;;;;;;;16.02;75.85;99038.20;1702192;83;21111;-83
2022/07/27 02:30:23;;;;;;;3.20;2.05;;;;;;;15.98;76.06;99036.20;1701708;84;21059;-85
2022/07/27 02:32:51;;;;;;;3.30;2.22;;;;;;;15.96;76.53;99039.43;1702076;84;21067;-83
2022/07/27 02:35:18;;;;;;;2.33;2.12;;;;;;;15.94;76.64;99045.31;1701550;84;21072;-83
2022/07/27 02:37:45;;;;;;;2.47;2.30;;;;;;;15.94;76.64;99043.98;1702148;84;21126;-83
2022/07/27 02:40:12;;;;;;;2.45;2.10;;;;;;;15.93;76.54;99048.91;1701746;83;21657;-84
2022/07/27 02:42:39;;;;;;;2.17;2.08;;;;;;;15.92;76.34;99041.05;1701842;84;21662;-84
2022/07/27 02:45:06;;;;;;;2.60;2.00;;;;;;;15.90;76.32;99039.84;1701802;84;21203;-85
2022/07/27 02:47:33;;;;;;;2.35;2.17;;;;;;;15.89;76.23;99044.77;1701693;84;21107;-83
2022/07/27 02:50:04;;;;;;;4.97;2.30;;;;;;;15.90;76.27;99047.80;1702134;84;21068;-83
2022/07/27 02:52:30;;;;;;;3.37;1.90;;;;;;;15.90;76.44;99051.78;1702002;84;21158;-83
2022/07/27 02:54:57;;;;;;;2.58;2.37;;;;;;;15.90;77.00;99051.78;1701883;84;22138;-81
2022/07/27 02:57:24;;;;;;;4.37;3.12;;;;;;;15.89;76.97;99043.92;1701825;84;21217;-84
2022/07/27 02:59:50;;;;;;;2.08;1.92;;;;;;;15.93;77.13;99052.89;1701733;84;21072;-83
2022/07/27 03:02:17;;;;;;;7.05;3.20;;;;;;;15.96;77.32;99050.04;1701855;84;21154;-82
2022/07/27 03:04:43;;;;;;;6.10;2.70;;;;;;;16.03;77.31;99060.27;1701883;84;21451;-83
2022/07/27 03:07:10;;;;;;;2.87;2.47;;;;;;;16.06;77.03;99054.77;1701905;84;21023;-84
2022/07/27 03:09:36;;;;;;;3.80;2.33;;;;;;;16.12;76.97;99061.86;1702142;84;21614;-83
2022/07/27 03:12:03;;;;;;;8.23;3.05;;;;;;;16.17;76.73;99054.91;1701914;84;21052;-83
2022/07/27 03:14:30;;;;;;;5.70;2.72;;;;;;;16.24;76.89;99049.59;1701733;84;21479;-84
2022/07/27 03:16:58;;;;;;;2.95;2.70;;;;;;;16.31;76.77;99053.54;1724777;82;21031;-84
2022/07/27 03:19:25;;;;;;;7.70;3.12;;;;;;;16.37;77.03;99054.09;1737166;82;21631;-83
2022/07/27 03:21:51;;;;;;;5.05;2.95;;;;;;;16.44;77.11;99059.36;1738499;80;21185;-84
2022/07/27 03:24:18;;;;;;;2.90;2.70;;;;;;;16.49;77.14;99051.94;1737471;81;21090;-84
2022/07/27 03:26:45;;;;;;;3.30;3.00;;;;;;;16.54;77.14;99059.12;1736846;82;21113;-80
2022/07/27 03:29:13;;;;;;;4.85;2.83;;;;;;;16.58;76.94;99056.65;1737346;82;21057;-83
2022/07/27 03:31:40;;;;;;;6.37;3.08;;;;;;;16.65;76.65;99049.97;1728468;82;21063;-83
2022/07/27 03:34:06;;;;;;;4.65;2.83;;;;;;;16.71;76.44;99054.03;1721546;82;21848;-82
2022/07/27 03:36:33;;;;;;;3.12;2.17;;;;;;;16.76;76.18;99057.69;1720896;83;21677;-85
2022/07/27 03:38:59;;;;;;;5.45;2.62;;;;;;;16.81;75.27;99055.56;1721175;83;21096;-81
2022/07/27 03:41:26;;;;;;;4.22;2.77;;;;;;;16.87;75.13;99055.19;1720944;83;21070;-83
2022/07/27 03:43:52;;;;;;;8.00;3.02;;;;;;;16.92;75.00;99059.72;1720935;83;20993;-82
2022/07/27 03:46:19;;;;;;;5.55;2.72;;;;;;;16.98;75.20;99055.31;1721232;83;21092;-81
2022/07/27 03:48:45;;;;;;;4.75;2.70;;;;;;;17.04;75.33;99050.89;1720987;83;21069;-83
2022/07/27 03:51:12;;;;;;;4.80;2.85;;;;;;;17.08;75.54;99040.44;1721312;83;21113;-84
2022/07/27 03:53:39;;;;;;;4.42;2.72;;;;;;;17.14;75.62;99047.61;1720892;83;21089;-83
2022/07/27 03:56:05;;;;;;;3.42;2.90;;;;;;;17.20;75.60;99053.36;1721112;83;20997;-83
2022/07/27 03:58:32;;;;;;;5.67;3.27;;;;;;;17.27;75.49;99061.76;1720888;83;21096;-84
2022/07/27 04:00:58;;;;;;;4.97;3.17;;;;;;;17.34;75.59;99052.39;1721094;83;21092;-84
2022/07/27 04:03:25;;;;;;;3.75;2.77;;;;;;;17.43;75.59;99054.41;1721138;83;21064;-84
2022/07/27 04:05:53;;;;;;;3.30;2.85;;;;;;;17.54;75.56;99055.47;1720978;83;21089;-84
2022/07/27 04:08:20;;;;;;;4.92;3.05;;;;;;;17.64;75.48;99056.02;1721037;83;22092;-83
2022/07/27 04:10:48;;;;;;;3.25;2.95;;;;;;;17.75;75.41;99048.62;1720738;83;21061;-84
2022/07/27 04:13:15;;;;;;;4.72;2.80;;;;;;;17.86;74.95;99047.83;1720791;83;21041;-82
2022/07/27 04:15:41;;;;;;;5.17;2.65;;;;;;;17.98;74.77;99046.13;1721152;83;21057;-84
2022/07/27 04:18:08;;;;;;;5.58;2.72;;;;;;;18.10;74.53;99047.87;1678167;84;21076;-84
2022/07/27 04:20:35;;;;;;;3.02;2.67;;;;;;;18.22;74.17;99050.61;1647259;87;21106;-84
2022/07/27 04:23:02;;;;;;;2.95;2.60;;;;;;;18.33;73.91;99050.67;1677844;85;21536;-82
2022/07/27 04:25:30;;;;;;;4.03;2.58;;;;;;;18.45;73.42;99049.75;1677737;84;21092;-83
2022/07/27 04:27:57;;;;;;;4.58;2.67;;;;;;;18.56;73.25;99043.14;1677771;85;21609;-84
2022/07/27 04:30:25;;;;;;;3.90;2.17;;;;;;;18.67;73.16;99042.32;1677737;85;21033;-81
2022/07/27 04:32:52;;;;;;;4.80;3.00;;;;;;;18.80;72.69;99044.91;1678011;85;21080;-85
2022/07/27 04:35:18;;;;;;;3.65;2.47;;;;;;;18.94;72.44;99051.88;1677721;85;21809;-84
2022/07/27 04:37:45;;;;;;;3.00;2.70;;;;;;;19.06;71.86;99051.41;1677660;85;21599;-84
2022/07/27 04:40:12;;;;;;;5.12;2.33;;;;;;;19.17;71.01;99051.45;1678264;85;21036;-82
2022/07/27 04:42:38;;;;;;;5.62;2.67;;;;;;;19.26;70.77;99056.05;1677747;85;21037;-82
2022/07/27 04:45:06;;;;;;;2.45;2.20;;;;;;;19.37;70.50;99052.55;1677794;85;21115;-83
2022/07/27 04:47:33;;;;;;;4.22;1.85;;;;;;;19.50;70.01;99057.75;1677751;85;21185;-83
2022/07/27 04:49:59;;;;;;;8.23;3.20;;;;;;;19.62;69.55;99058.63;1678462;85;21119;-85
2022/07/27 04:52:26;;;;;;;6.45;3.10;;;;;;;19.73;68.51;99057.77;1677885;85;21124;-83
2022/07/27 04:54:53;;;;;;;4.67;2.70;;;;;;;19.85;67.64;99055.47;1677894;85;21044;-83
2022/07/27 04:57:20;;;;;;;7.80;3.37;;;;;;;19.96;66.86;99057.28;1647489;87;21016;-81
2022/07/27 04:59:46;;;;;;;4.17;2.30;;;;;;;20.06;66.76;99052.05;1647290;87;22248;-83
2022/07/27 05:02:13;;;;;;;5.25;3.27;;;;;;;20.18;66.36;99052.38;1678192;85;21570;-84
2022/07/27 05:04:39;;;;;;;6.00;2.80;;;;;;;20.29;65.61;99051.48;1647641;87;21130;-85
2022/07/27 05:07:06;;;;;;;4.03;2.47;;;;;;;20.39;65.11;99058.63;1678020;85;21087;-83
2022/07/27 05:09:33;;;;;;;3.72;2.25;;;;;;;20.50;64.27;99060.89;1678003;85;21056;-81
2022/07/27 05:12:01;;;;;;;2.60;2.40;;;;;;;20.62;63.35;99060.36;1678006;84;21160;-83
2022/07/27 05:14:29;;;;;;;3.15;1.90;;;;;;;20.72;63.44;99054.13;1647778;87;21423;-82
2022/07/27 05:16:55;;;;;;;4.12;2.02;;;;;;;20.85;62.43;99062.47;1693823;83;21155;-84
2022/07/27 05:19:22;;;;;;;6.75;1.95;;;;;;;20.95;62.51;99062.05;1721061;83;21156;-85
2022/07/27 05:21:49;;;;;;;7.58;2.08;;;;;;;21.05;61.99;99068.80;1721251;83;21073;-85
2022/07/27 05:24:16;;;;;;;7.35;2.20;;;;;;;21.18;61.23;99064.57;1720995;83;21099;-84
2022/07/27 05:26:43;;;;;;;4.75;1.90;;;;;;;21.28;61.09;99059.65;1751574;80;21048;-83
2022/07/27 05:29:10;;;;;;;5.15;2.30;;;;;;;21.37;60.85;99062.02;1762387;81;21048;-83
2022/07/27 05:31:36;;;;;;;2.17;1.62;;;;;;;21.47;60.48;99065.61;1762590;80;21111;-83
2022/07/27 05:34:03;;;;;;;2.08;1.80;;;;;;;21.59;59.75;99070.88;1762305;81;21384;-82
2022/07/27 05:36:30;;;;;;;5.17;1.80;;;;;;;21.70;59.24;99072.11;1749332;81;21117;-85
2022/07/27 05:38:57;;;;;;;9.98;1.90;;;;;;;21.79;58.73;99072.64;1728099;83;21100;-82
2022/07/27 05:41:25;;;;;;;2.60;1.67;;;;;;;21.91;59.22;99072.55;1728016;82;20997;-83
2022/07/27 05:43:55;;;;;;;3.77;1.70;;;;;;;22.00;58.63;99075.73;1728224;83;21064;-84
2022/07/27 05:46:22;;;;;;;8.03;1.80;;;;;;;22.11;59.29;99072.95;1728532;83;21661;-83
2022/07/27 05:48:49;;;;;;;6.25;1.70;;;;;;;22.21;58.06;99069.80;1728512;82;21484;-84
2022/07/27 05:51:15;;;;;;;3.22;1.80;;;;;;;22.33;57.08;99072.39;1727825;83;21065;-83
2022/07/27 05:53:42;;;;;;;2.45;1.72;;;;;;;22.44;57.32;99081.62;1728457;82;21108;-83
2022/07/27 05:56:10;;;;;;;2.42;1.45;;;;;;;22.53;56.93;99084.81;1728203;83;21065;-81
2022/07/27 05:58:37;;;;;;;1.67;1.57;;;;;;;22.63;57.15;99084.83;1728571;83;21072;-84
2022/07/27 06:01:04;;;;;;;3.72;1.47;;;;;;;22.74;56.67;99083.83;1728314;83;21845;-81
2022/07/27 06:03:31;;;;;;;5.35;1.92;;;;;;;22.83;56.73;99080.31;1727993;83;21550;-83
2022/07/27 06:08:45;;;;;;;5.08;1.70;;;;;;;23.02;55.13;99083.96;1727777;83;21017;-84
2022/07/27 06:11:11;;;;;;;2.47;1.50;;;;;;;23.12;55.51;99084.82;1728560;82;21104;-83
2022/07/27 06:13:39;;;;;;;4.10;1.50;;;;;;;23.22;55.42;99088.33;1728203;82;20993;-81
2022/07/27 06:16:05;;;;;;;2.27;1.40;;;;;;;23.30;54.81;99085.77;1728507;82;21116;-85
2022/07/27 06:18:33;;;;;;;4.87;1.57;;;;;;;23.43;55.05;99080.56;1728116;83;21092;-83
2022/07/27 06:21:01;;;;;;;2.58;1.30;;;;;;;23.53;53.92;99084.06;1728074;83;21123;-83
2022/07/27 06:23:28;;;;;;;6.92;1.70;;;;;;;23.62;52.86;99084.54;1728357;83;21020;-83
2022/07/27 06:25:56;;;;;;;4.85;1.42;;;;;;;23.68;52.74;99079.06;1727959;83;21107;-82
2022/07/27 06:28:24;;;;;;;4.10;1.35;;;;;;;23.79;52.86;99082.91;1728442;82;21631;-84
2022/07/27 06:30:52;;;;;;;2.10;1.30;;;;;;;23.85;52.67;99076.12;1727626;82;21116;-84
2022/07/27 06:33:26;;;;;;;3.05;1.30;;;;;;;23.95;52.85;99084.14;1728352;82;21419;-82
2022/07/27 06:35:47;;;;;;;3.15;1.17;;;;;;;24.05;51.35;99084.42;1727350;81;20993;-83
2022/07/27 06:38:13;;;;;;;1.45;1.17;;;;;;;24.16;50.84;99082.52;1727869;82;21286;-83
2022/07/27 06:40:40;;;;;;;2.58;1.55;;;;;;;24.23;49.58;99079.59;1727918;83;21057;-82
2022/07/27 06:43:07;;;;;;;5.97;1.25;;;;;;;24.30;49.24;99077.98;1728143;83;21152;-84
2022/07/27 06:45:33;;;;;;;3.77;1.60;;;;;;;24.39;49.36;99077.05;1727802;82;21100;-83
2022/07/27 06:48:00;;;;;;;2.08;1.25;;;;;;;24.47;48.60;99077.14;1727965;82;21112;-82
2022/07/27 06:50:26;;;;;;;2.60;1.42;;;;;;;24.54;48.64;99073.84;1728195;83;21104;-82
2022/07/27 06:52:53;;;;;;;3.00;1.20;;;;;;;24.63;49.39;99075.66;1728230;82;20961;-83
2022/07/27 06:55:19;;;;;;;5.78;1.30;;;;;;;24.74;48.67;99086.16;1728445;83;21001;-83
2022/07/27 06:57:45;;;;;;;5.95;1.57;;;;;;;24.83;47.10;99074.48;1727850;82;21100;-84
2022/07/27 07:00:13;;;;;;;1.67;1.27;;;;;;;24.90;47.53;99080.09;1728205;83;21057;-84
2022/07/27 07:02:51;;;;;;;3.67;1.32;;;;;;;24.98;47.37;99079.30;1728119;83;21567;-82
2022/07/27 07:05:18;;;;;;;3.72;1.60;;;;;;;25.05;46.60;99076.34;1720504;83;21013;-81
2022/07/27 07:07:44;;;;;;;4.65;1.92;;;;;;;25.16;47.11;99084.14;1727949;83;21076;-85
2022/07/27 07:10:11;;;;;;;2.00;1.90;;;;;;;25.25;47.04;99074.77;1728431;83;21148;-83
2022/07/27 07:12:39;;;;;;;2.27;1.60;;;;;;;25.29;47.24;99076.20;1728135;83;21092;-85
2022/07/27 07:15:06;;;;;;;1.52;1.42;;;;;;;25.32;47.63;99075.38;1728149;82;21073;-82
2022/07/27 07:17:33;;;;;;;5.85;1.25;;;;;;;25.39;47.75;99072.89;1727258;82;21578;-81
2022/07/27 07:20:00;;;;;;;6.30;1.40;;;;;;;25.50;47.15;99079.84;1725602;83;21013;-84
2022/07/27 07:22:28;;;;;;;2.50;1.55;;;;;;;25.60;46.89;99073.84;1725478;83;47378;-82
2022/07/27 07:24:55;;;;;;;5.10;1.60;;;;;;;25.72;46.95;99074.39;1725544;83;21989;-83
2022/07/27 07:27:22;;;;;;;5.62;1.37;;;;;;;25.84;46.11;99074.47;1725294;83;21967;-85
2022/07/27 07:29:49;;;;;;;1.40;1.30;;;;;;;25.96;45.54;99073.70;1752419;80;20975;-84
2022/07/27 07:32:15;;;;;;;1.55;1.30;;;;;;;26.05;43.98;99075.41;1763048;81;21004;-82
2022/07/27 07:34:42;;;;;;;3.50;1.40;;;;;;;26.12;44.28;99073.73;1761847;81;21519;-84
2022/07/27 07:37:10;;;;;;;2.85;1.20;;;;;;;26.16;43.22;99075.62;1762408;81;21611;-85
2022/07/27 07:39:37;;;;;;;3.20;1.45;;;;;;;26.20;42.12;99080.19;1762597;81;21807;-82
2022/07/27 07:42:03;;;;;;;6.47;1.57;;;;;;;26.19;42.47;99073.92;1762444;81;21953;-81
2022/07/27 07:44:31;;;;;;;4.17;1.30;;;;;;;26.23;42.70;99072.61;1762554;81;21565;-82
2022/07/27 07:46:57;;;;;;;1.45;1.20;;;;;;;26.31;42.99;99069.93;1738905;81;21489;-81
2022/07/27 07:49:24;;;;;;;3.02;1.67;;;;;;;26.40;42.30;99074.00;1725760;82;21127;-84
2022/07/27 07:51:50;;;;;;;2.27;1.30;;;;;;;26.44;42.28;99069.94;1726281;82;21213;-83
2022/07/27 07:54:17;;;;;;;2.40;1.47;;;;;;;26.49;42.79;99068.94;1725968;82;21108;-83
2022/07/27 07:56:43;;;;;;;5.80;1.40;;;;;;;26.56;42.29;99079.91;1726001;83;21045;-83
2022/07/27 07:59:10;;;;;;;3.27;1.50;;;;;;;26.56;42.49;99071.81;1725889;83;21066;-83
2022/07/27 08:01:37;;;;;;;3.08;1.30;;;;;;;26.61;42.07;99074.37;1726093;82;21010;-81
2022/07/27 08:04:04;;;;;;;2.42;1.47;;;;;;;26.70;40.81;99071.20;1725962;83;21052;-83
2022/07/27 08:06:32;;;;;;;5.95;1.20;;;;;;;26.77;42.60;99076.25;1725946;83;21135;-84
2022/07/27 08:08:59;;;;;;;2.17;1.35;;;;;;;26.86;42.71;99075.25;1726056;82;21080;-82
2022/07/27 08:11:27;;;;;;;6.00;1.20;;;;;;;26.99;41.72;99078.77;1725770;83;21005;-83
2022/07/27 08:13:54;;;;;;;3.55;1.40;;;;;;;27.10;40.55;99075.39;1725723;83;21076;-85
2022/07/27 08:16:20;;;;;;;2.80;1.40;;;;;;;27.16;40.56;99073.37;1725730;83;21100;-82
2022/07/27 08:18:47;;;;;;;2.30;1.40;;;;;;;27.23;40.55;99071.66;1725619;82;21103;-83
2022/07/27 08:21:13;;;;;;;2.67;1.35;;;;;;;27.29;40.26;99065.61;1725569;82;21107;-83
2022/07/27 08:23:40;;;;;;;3.20;1.40;;;;;;;27.40;39.87;99064.39;1726014;82;21063;-82
2022/07/27 08:26:06;;;;;;;4.45;2.10;;;;;;;27.52;41.08;99074.33;1725663;82;21953;-82
2022/07/27 08:28:33;;;;;;;2.15;1.37;;;;;;;27.61;39.34;99062.49;1725606;83;21194;-81
2022/07/27 08:31:01;;;;;;;2.00;1.30;;;;;;;27.61;39.34;99073.30;1725450;82;21075;-84
2022/07/27 08:33:27;;;;;;;5.85;1.30;;;;;;;27.51;38.78;99069.95;1725404;82;21064;-83
2022/07/27 08:35:56;;;;;;;1.92;1.62;;;;;;;27.34;39.81;99074.05;1725446;82;21622;-84
2022/07/27 08:38:26;;;;;;;1.55;1.40;;;;;;;27.20;39.42;99066.11;1725656;83;21060;-85
2022/07/27 08:40:51;;;;;;;5.72;1.60;;;;;;;27.12;39.56;99070.17;1725524;82;21157;-82
2022/07/27 08:43:19;;;;;;;2.98;1.40;;;;;;;27.10;40.50;99071.34;1725610;83;21115;-82
2022/07/27 08:45:57;;;;;;;5.20;1.17;;;;;;;27.14;39.48;99070.00;1726054;82;21618;-83
2022/07/27 08:48:26;;;;;;;4.78;1.25;;;;;;;27.21;38.99;99067.78;1726065;83;21029;-83
2022/07/27 08:50:54;;;;;;;5.20;1.57;;;;;;;27.24;39.56;99061.20;1725810;82;21019;-83
2022/07/27 08:53:21;;;;;;;7.25;1.30;;;;;;;27.22;38.98;99066.78;1725642;83;21064;-85
2022/07/27 08:55:47;;;;;;;1.52;1.40;;;;;;;27.20;39.00;99066.59;1725835;82;21175;-84
2022/07/27 08:58:15;;;;;;;1.95;1.22;;;;;;;27.15;39.74;99068.97;1725378;83;21116;-83
2022/07/27 09:00:44;;;;;;;3.58;1.00;;;;;;;27.08;40.80;99071.50;1725546;83;21136;-83
2022/07/27 09:03:12;;;;;;;2.98;1.00;;;;;;;27.03;39.79;99074.74;1726006;83;21108;-82
2022/07/27 09:05:42;;;;;;;4.87;1.10;;;;;;;26.97;38.51;99078.11;1725941;82;21124;-84
2022/07/27 09:08:15;;;;;;;1.40;1.30;;;;;;;26.94;38.54;99073.04;1725636;83;21099;-85
2022/07/27 09:10:41;;;;;;;8.38;1.20;;;;;;;26.99;39.34;99066.62;1725602;82;21682;-83
2022/07/27 09:13:32;;;;;;;4.33;1.30;;;;;;;27.09;38.75;99070.50;1725885;83;21032;-83
2022/07/27 09:16:02;;;;;;;1.75;0.95;;;;;;;27.20;37.99;99068.81;1726152;82;21075;-82
2022/07/27 09:18:32;;;;;;;1.42;1.10;;;;;;;27.34;38.46;99068.64;1725779;83;21137;-84
2022/07/27 09:21:19;;;;;;;3.65;0.80;;;;;;;27.49;38.91;99062.52;1726066;83;21625;-84
2022/07/27 09:23:53;;;;;;;3.67;1.32;;;;;;;27.65;38.77;99062.47;1720844;82;21115;-84
2022/07/27 09:26:28;;;;;;;2.03;1.10;;;;;;;27.85;38.46;99067.47;1726290;83;20993;-82
2022/07/27 09:29:01;;;;;;;5.83;1.00;;;;;;;27.97;39.11;99062.03;1725686;83;20993;-84
2022/07/27 09:31:28;;;;;;;4.97;1.05;;;;;;;28.08;39.53;99058.94;1720826;83;22306;-81
2022/07/27 09:33:58;;;;;;;2.58;1.15;;;;;;;28.19;38.91;99058.20;1725802;83;21040;-83
2022/07/27 09:36:27;;;;;;;3.42;1.10;;;;;;;28.17;37.45;99064.62;1724011;83;21124;-84
2022/07/27 09:39:05;;;;;;;1.55;1.02;;;;;;;28.06;36.94;99060.98;1725526;83;21618;-85
2022/07/27 09:41:45;;;;;;;1.85;1.05;;;;;;;27.97;37.36;99066.08;1724705;83;20997;-83
2022/07/27 09:44:11;;;;;;;7.33;1.02;;;;;;;28.07;37.84;99072.11;1725593;81;21807;-84
2022/07/27 09:46:41;;;;;;;1.40;0.90;;;;;;;28.10;37.23;99066.36;1726130;82;21060;-84
2022/07/27 09:49:30;;;;;;;4.22;1.00;;;;;;;28.13;37.42;99074.13;1721318;82;21100;-82
2022/07/27 09:51:57;;;;;;;1.77;0.80;;;;;;;28.09;37.20;99072.80;1672898;85;21073;-83
2022/07/27 09:54:24;;;;;;;2.30;1.12;;;;;;;28.06;37.23;99072.28;1673201;85;21010;-83
2022/07/27 09:56:59;;;;;;;2.15;1.15;;;;;;;28.07;37.22;99071.28;1670795;85;21183;-85
2022/07/27 09:59:26;;;;;;;1.75;1.22;;;;;;;28.14;37.65;99074.47;1672674;85;21607;-81
2022/07/27 10:01:54;;;;;;;5.62;1.00;;;;;;;28.25;36.73;99068.32;1670030;85;21078;-83
2022/07/27 10:04:22;;;;;;;1.30;1.00;;;;;;;28.32;37.42;99066.58;1672924;85;21113;-84
2022/07/27 10:06:49;;;;;;;1.98;1.02;;;;;;;28.44;36.65;99065.13;1672512;84;21227;-83
2022/07/27 10:09:18;;;;;;;3.80;1.00;;;;;;;28.56;36.80;99065.59;1672955;85;21117;-84
2022/07/27 10:11:46;;;;;;;1.05;0.72;;;;;;;28.68;38.07;99064.16;1673093;85;21097;-81
2022/07/27 10:14:14;;;;;;;2.85;1.30;;;;;;;28.85;37.35;99068.07;1672230;85;21039;-80
2022/07/27 10:16:41;;;;;;;0.98;0.80;;;;;;;28.99;35.94;99065.93;1672458;85;21047;-78
2022/07/27 10:19:28;;;;;;;5.87;1.12;;;;;;;28.98;35.94;99072.88;1688468;84;21137;-82
2022/07/27 10:21:55;;;;;;;1.10;1.00;;;;;;;28.88;35.67;99068.58;1700430;84;21130;-83
2022/07/27 10:24:35;;;;;;;5.00;1.15;;;;;;;28.87;36.75;99066.88;1700528;84;21200;-82
2022/07/27 10:27:29;;;;;;;2.60;0.90;;;;;;;28.93;36.57;99064.46;1700472;84;21089;-82
2022/07/27 10:29:56;;;;;;;3.35;1.20;;;;;;;28.89;36.80;99068.88;1700466;84;21036;-84
2022/07/27 10:32:30;;;;;;;3.30;0.95;;;;;;;28.84;37.87;99068.59;1700756;84;21090;-84
2022/07/27 10:34:58;;;;;;;4.72;1.00;;;;;;;28.91;37.71;99069.54;1699350;83;21168;-81
2022/07/27 10:37:31;;;;;;;5.53;0.90;;;;;;;29.04;36.23;99068.92;1700531;84;21054;-81
2022/07/27 10:42:45;;;;;;;3.45;1.20;;;;;;;29.01;35.63;99067.10;1693854;84;21541;-83
2022/07/27 10:45:14;;;;;;;2.22;0.90;;;;;;;28.93;36.13;99068.53;1693743;84;21177;-84
2022/07/27 10:47:43;;;;;;;1.25;1.00;;;;;;;28.83;36.06;99067.42;1694037;84;21131;-83
2022/07/27 10:50:24;;;;;;;4.78;0.98;;;;;;;28.82;36.32;99060.34;1693594;84;20948;-81
2022/07/27 10:53:02;;;;;;;0.85;0.85;;;;;;;28.82;36.38;99065.75;1650687;86;21153;-84
2022/07/27 10:55:37;;;;;;;3.83;0.90;;;;;;;28.85;37.32;99066.72;1693508;84;21029;-85
2022/07/27 10:58:14;;;;;;;0.93;0.70;;;;;;;28.90;37.83;99061.63;1693435;84;21050;-83
2022/07/27 11:00:54;;;;;;;2.42;1.00;;;;;;;28.95;38.04;99071.39;1693624;84;21120;-83
2022/07/27 11:03:34;;;;;;;5.80;1.50;;;;;;;29.03;37.67;99073.17;1650344;86;21077;-83
2022/07/27 11:06:09;;;;;;;6.08;0.98;;;;;;;29.06;36.69;99076.88;1693573;84;21502;-84
2022/07/27 11:08:40;;;;;;;2.22;0.80;;;;;;;28.95;36.45;99080.01;1693578;84;21007;-82
2022/07/27 11:11:10;;;;;;;1.82;0.70;;;;;;;28.71;37.16;99080.05;1693752;84;21044;-83
2022/07/27 11:13:38;;;;;;;5.30;0.78;;;;;;;28.49;36.96;99081.67;1688202;84;21114;-84
2022/07/27 11:16:10;;;;;;;6.53;0.80;;;;;;;28.30;37.66;99080.80;1693479;84;22095;-83
2022/07/27 11:18:39;;;;;;;8.05;1.07;;;;;;;28.15;37.23;99084.25;1656346;85;21575;-84
2022/07/27 11:21:33;;;;;;;6.85;0.98;;;;;;;27.96;37.76;99084.70;1736262;80;21038;-84
2022/07/27 11:24:17;;;;;;;15.50;6.30;;;;;;;27.83;38.00;99081.67;1736902;82;21133;-84
2022/07/27 11:26:49;;;;;;;8.60;2.55;;;;;;;27.68;37.69;99086.45;1736817;82;21152;-81
2022/07/27 11:29:18;;;;;;;13.35;1.55;;;;;;;27.51;38.85;99086.17;1736523;82;21576;-84
2022/07/27 11:31:46;;;;;;;6.22;1.27;;;;;;;27.35;38.67;99086.55;1737063;82;21031;-84
2022/07/27 11:34:15;;;;;;;4.25;1.20;;;;;;;27.24;39.15;99085.52;1737076;82;20975;-81
2022/07/27 11:36:49;;;;;;;2.47;1.02;;;;;;;27.17;39.46;99091.27;1737134;82;21055;-83
2022/07/27 11:39:23;;;;;;;5.30;1.30;;;;;;;27.09;40.15;99096.16;1737274;82;21586;-84
2022/07/27 11:41:55;;;;;;;10.58;1.82;;;;;;;26.98;39.56;99094.66;1737233;82;20979;-84
2022/07/27 11:44:22;;;;;;;18.42;1.70;;;;;;;26.87;40.24;99111.18;1735982;82;21090;-83
2022/07/27 11:46:50;;;;;;;17.73;1.85;;;;;;;26.61;41.13;99106.75;1727268;82;21092;-83